createdAt,value
2022-12-11T00:00:54.114Z,97686.03
2022-12-11T00:03:20.827Z,97686.91
2022-12-11T00:05:47.395Z,97690.69
2022-12-11T00:08:14.262Z,97683.38
2022-12-11T00:10:48.025Z,97682.34
2022-12-11T00:13:14.564Z,97679.09
2022-12-11T00:15:41.075Z,97671.53
2022-12-11T00:18:12.033Z,97674.69
2022-12-11T00:20:38.514Z,97676.19
2022-12-11T00:23:05.500Z,97684.03
2022-12-11T00:25:32.010Z,97685.88
2022-12-11T00:27:58.530Z,97678.19
2022-12-11T00:30:25.017Z,97678.41
2022-12-11T00:32:51.911Z,97681.97
2022-12-11T00:35:18.445Z,97677.50
2022-12-11T00:37:44.974Z,97673.59
2022-12-11T00:40:11.601Z,97667.66
2022-12-11T00:42:38.277Z,97671.59
2022-12-11T00:45:04.963Z,97663.53
2022-12-11T00:47:31.495Z,97665.53
2022-12-11T00:49:58.044Z,97667.00
2022-12-11T00:52:24.726Z,97668.13
2022-12-11T00:54:51.209Z,97668.41
2022-12-11T00:57:17.715Z,97663.91
2022-12-11T00:59:44.272Z,97666.88
2022-12-11T01:02:10.777Z,97665.81
2022-12-11T01:04:37.482Z,97677.88
2022-12-11T01:07:04.298Z,97683.00
2022-12-11T01:09:49.192Z,97681.94
2022-12-11T01:12:15.732Z,97682.09
2022-12-11T01:14:42.234Z,97690.75
2022-12-11T01:17:08.729Z,97694.53
2022-12-11T01:19:35.267Z,97697.88
2022-12-11T01:22:01.733Z,97706.09
2022-12-11T01:24:28.507Z,97713.44
2022-12-11T01:26:54.973Z,97707.06
2022-12-11T01:29:21.481Z,97711.88
2022-12-11T01:31:47.980Z,97712.19
2022-12-11T01:34:14.490Z,97711.63
2022-12-11T01:36:40.972Z,97703.28
2022-12-11T01:39:07.518Z,97697.13
2022-12-11T01:41:34.049Z,97697.03
2022-12-11T01:44:21.207Z,97695.78
2022-12-11T01:46:47.937Z,97701.88
2022-12-11T01:49:15.582Z,97704.69
2022-12-11T01:51:55.015Z,97698.59
2022-12-11T01:54:22.940Z,97709.94
2022-12-11T01:56:51.978Z,97712.25
2022-12-11T01:59:21.420Z,97709.88
2022-12-11T02:01:52.885Z,97703.13
2022-12-11T02:04:20.014Z,97720.19
2022-12-11T02:06:48.961Z,97714.69
2022-12-11T02:09:18.373Z,97717.59
2022-12-11T02:12:00.096Z,97718.97
2022-12-11T02:14:44.246Z,97728.03
2022-12-11T02:17:14.541Z,97716.44
2022-12-11T02:20:07.239Z,97733.31
2022-12-11T02:22:38.775Z,97728.75
2022-12-11T02:25:16.890Z,97717.19
2022-12-11T02:27:56.394Z,97721.28
2022-12-11T02:30:23.677Z,97719.19
2022-12-11T02:32:56.883Z,97721.88
2022-12-11T02:35:31.423Z,97717.06
2022-12-11T02:38:02.667Z,97702.09
2022-12-11T02:40:31.826Z,97707.44
2022-12-11T02:43:01.345Z,97705.28
2022-12-11T02:45:28.645Z,97705.06
2022-12-11T02:47:57.518Z,97702.69
2022-12-11T02:50:25.102Z,97707.75
2022-12-11T02:52:54.238Z,97716.53
2022-12-11T02:55:20.796Z,97709.22
2022-12-11T02:57:53.883Z,97710.16
2022-12-11T03:00:21.827Z,97717.44
2022-12-11T03:02:48.975Z,97715.53
2022-12-11T03:05:15.806Z,97711.63
2022-12-11T03:07:44.254Z,97715.44
2022-12-11T03:10:14.609Z,97714.69
2022-12-11T03:12:43.499Z,97707.56
2022-12-11T03:15:14.600Z,97702.09
2022-12-11T03:17:54.831Z,97695.44
2022-12-11T03:20:30.826Z,97704.91
2022-12-11T03:23:21.571Z,97704.03
2022-12-11T03:25:57.342Z,97700.69
2022-12-11T03:28:29.576Z,97712.78
2022-12-11T03:30:56.507Z,97712.53
2022-12-11T03:33:30.951Z,97714.69
2022-12-11T03:36:04.085Z,97719.38
2022-12-11T03:38:42.715Z,97716.00
2022-12-11T03:41:10.246Z,97709.66
2022-12-11T03:43:37.497Z,97709.72
2022-12-11T03:46:04.731Z,97711.44
2022-12-11T03:48:33.959Z,97708.84
2022-12-11T03:51:02.535Z,97711.44
2022-12-11T03:53:29.229Z,97712.75
2022-12-11T03:55:58.204Z,97712.25
2022-12-11T03:58:24.808Z,97708.91
2022-12-11T04:00:51.319Z,97710.53
2022-12-11T04:03:17.975Z,97698.34
2022-12-11T04:05:49.636Z,97696.31
2022-12-11T04:08:17.989Z,97691.41
2022-12-11T04:10:44.567Z,97689.28
2022-12-11T04:13:11.089Z,97682.78
2022-12-11T04:15:38.249Z,97674.69
2022-12-11T04:18:40.850Z,97674.91
2022-12-11T04:21:27.549Z,97680.78
2022-12-11T04:24:12.502Z,97661.81
2022-12-11T04:26:39.133Z,97667.31
2022-12-11T04:29:05.722Z,97670.41
2022-12-11T04:31:32.644Z,97665.25
2022-12-11T04:33:59.180Z,97673.56
2022-12-11T04:36:25.687Z,97665.22
2022-12-11T04:38:52.186Z,97659.97
2022-12-11T04:41:18.882Z,97660.94
2022-12-11T04:43:45.540Z,97668.31
2022-12-11T04:46:21.930Z,97664.94
2022-12-11T04:48:52.532Z,97672.63
2022-12-11T04:51:23.539Z,97671.75
2022-12-11T04:53:50.030Z,97672.53
2022-12-11T04:56:16.887Z,97668.31
2022-12-11T04:58:44.202Z,97678.16
2022-12-11T05:01:16.635Z,97677.22
2022-12-11T05:03:43.381Z,97672.19
2022-12-11T05:06:10.325Z,97668.47
2022-12-11T05:08:38.443Z,97670.72
2022-12-11T05:11:06.851Z,97665.69
2022-12-11T05:13:33.392Z,97671.19
2022-12-11T05:16:00.009Z,97672.78
2022-12-11T05:18:26.622Z,97674.13
2022-12-11T05:21:01.175Z,97673.22
2022-12-11T05:23:27.754Z,97666.69
2022-12-11T05:25:55.590Z,97675.84
2022-12-11T05:28:23.274Z,97681.53
2022-12-11T05:30:57.992Z,97682.16
2022-12-11T05:33:25.298Z,97679.59
2022-12-11T05:35:52.137Z,97683.22
2022-12-11T05:38:18.942Z,97674.03
2022-12-11T05:40:45.443Z,97675.53
2022-12-11T05:43:11.968Z,97662.75
2022-12-11T05:45:38.821Z,97667.09
2022-12-11T05:48:05.501Z,97666.66
2022-12-11T05:50:32.926Z,97673.53
2022-12-11T05:53:00.014Z,97673.19
2022-12-11T05:55:26.546Z,97668.13
2022-12-11T05:57:53.062Z,97667.84
2022-12-11T06:00:19.615Z,97659.69
2022-12-11T06:02:46.150Z,97656.84
2022-12-11T06:05:17.671Z,97656.53
2022-12-11T06:07:50.059Z,97656.25
2022-12-11T06:10:16.838Z,97653.31
2022-12-11T06:12:43.463Z,97646.59
2022-12-11T06:15:19.185Z,97637.41
2022-12-11T06:17:45.679Z,97639.03
2022-12-11T06:20:12.205Z,97639.66
2022-12-11T06:22:38.891Z,97643.53
2022-12-11T06:25:06.285Z,97641.63
2022-12-11T06:27:40.597Z,97638.44
2022-12-11T06:30:19.075Z,97631.31
2022-12-11T06:32:53.473Z,97631.63
2022-12-11T06:35:20.263Z,97633.31
2022-12-11T06:37:49.772Z,97626.59
2022-12-11T06:40:16.442Z,97627.00
2022-12-11T06:42:43.019Z,97632.41
2022-12-11T06:45:10.507Z,97623.75
2022-12-11T06:47:37.311Z,97627.03
2022-12-11T06:50:04.053Z,97630.56
2022-12-11T06:52:34.221Z,97634.09
2022-12-11T06:55:07.012Z,97644.22
2022-12-11T06:57:37.005Z,97647.28
2022-12-11T07:00:04.283Z,97644.66
2022-12-11T07:02:30.842Z,97642.41
2022-12-11T07:04:57.377Z,97656.69
2022-12-11T07:07:23.911Z,97654.66
2022-12-11T07:09:51.608Z,97664.75
2022-12-11T07:12:18.211Z,97666.94
2022-12-11T07:14:44.822Z,97668.06
2022-12-11T07:17:11.385Z,97674.16
2022-12-11T07:19:37.904Z,97673.94
2022-12-11T07:22:04.410Z,97672.59
2022-12-11T07:24:31.063Z,97677.22
2022-12-11T07:26:57.733Z,97667.53
2022-12-11T07:29:24.251Z,97663.63
2022-12-11T07:31:50.894Z,97667.97
2022-12-11T07:34:17.413Z,97669.22
2022-12-11T07:36:43.997Z,97668.78
2022-12-11T07:39:12.116Z,97669.97
2022-12-11T07:41:39.466Z,97676.19
2022-12-11T07:44:10.411Z,97675.59
2022-12-11T07:46:37.655Z,97670.28
2022-12-11T07:49:05.961Z,97672.72
2022-12-11T07:51:36.342Z,97673.81
2022-12-11T07:54:16.360Z,97673.19
2022-12-11T07:56:51.160Z,97674.94
2022-12-11T07:59:20.980Z,97685.75
2022-12-11T08:01:49.244Z,97679.81
2022-12-11T08:04:15.977Z,97681.06
2022-12-11T08:06:43.177Z,97678.16
2022-12-11T08:09:17.486Z,97676.19
2022-12-11T08:11:49.582Z,97676.09
2022-12-11T08:14:16.335Z,97664.31
2022-12-11T08:16:44.185Z,97664.22
2022-12-11T08:19:13.932Z,97668.69
2022-12-11T08:21:40.920Z,97668.50
2022-12-11T08:24:08.392Z,97670.34
2022-12-11T08:26:34.919Z,97677.22
2022-12-11T08:29:02.562Z,97672.63
2022-12-11T08:31:29.694Z,97680.72
2022-12-11T08:33:56.963Z,97674.13
2022-12-11T08:36:23.756Z,97679.38
2022-12-11T08:38:50.804Z,97672.94
2022-12-11T08:41:36.219Z,97679.00
2022-12-11T08:44:05.962Z,97667.53
2022-12-11T08:46:32.815Z,97670.69
2022-12-11T08:48:59.809Z,97675.22
2022-12-11T08:51:27.935Z,97662.72
2022-12-11T08:53:56.122Z,97672.03
2022-12-11T08:56:23.726Z,97668.94
2022-12-11T08:58:58.478Z,97671.66
2022-12-11T09:01:26.471Z,97668.00
2022-12-11T09:03:54.815Z,97665.63
2022-12-11T09:06:23.544Z,97667.31
2022-12-11T09:08:52.993Z,97665.47
2022-12-11T09:11:22.872Z,97661.25
2022-12-11T09:13:49.529Z,97664.66
2022-12-11T09:16:17.718Z,97666.34
2022-12-11T09:18:49.287Z,97665.44
2022-12-11T09:21:18.358Z,97661.50
2022-12-11T09:23:44.853Z,97668.88
2022-12-11T09:26:14.428Z,97662.69
2022-12-11T09:28:46.324Z,97661.91
2022-12-11T09:31:16.136Z,97664.28
2022-12-11T09:33:42.833Z,97665.34
2022-12-11T09:36:10.038Z,97665.06
2022-12-11T09:38:36.629Z,97663.53
2022-12-11T09:41:22.396Z,97663.59
2022-12-11T09:43:54.350Z,97660.28
2022-12-11T09:46:24.439Z,97658.16
2022-12-11T09:48:53.441Z,97650.44
2022-12-11T09:51:19.947Z,97652.78
2022-12-11T09:53:46.642Z,97653.50
2022-12-11T09:56:29.743Z,97638.41
2022-12-11T09:59:08.066Z,97646.84
2022-12-11T10:01:40.789Z,97647.28
2022-12-11T10:04:35.505Z,97645.50
2022-12-11T10:07:14.406Z,97650.66
2022-12-11T10:09:44.156Z,97647.72
2022-12-11T10:12:26.239Z,97651.00
2022-12-11T10:15:16.890Z,97648.03
2022-12-11T10:17:47.438Z,97648.25
2022-12-11T10:20:28.591Z,97648.53
2022-12-11T10:22:56.748Z,97635.78
2022-12-11T10:25:32.326Z,97632.63
2022-12-11T10:28:00.544Z,97623.22
2022-12-11T10:30:34.732Z,97627.22
2022-12-11T10:33:10.927Z,97620.78
2022-12-11T10:35:46.308Z,97620.13
2022-12-11T10:38:21.427Z,97612.09
2022-12-11T10:40:52.221Z,97612.13
2022-12-11T10:43:18.877Z,97614.97
2022-12-11T10:45:53.207Z,97614.00
2022-12-11T10:48:20.670Z,97613.16
2022-12-11T10:50:57.549Z,97620.09
2022-12-11T10:53:24.184Z,97605.06
2022-12-11T10:55:50.739Z,97603.16
2022-12-11T10:58:20.270Z,97597.13
2022-12-11T11:00:58.495Z,97597.00
2022-12-11T11:03:27.617Z,97591.59
2022-12-11T11:06:21.571Z,97590.50
2022-12-11T11:08:50.977Z,97585.50
2022-12-11T11:11:33.934Z,97585.50
2022-12-11T11:14:05.939Z,97582.34
2022-12-11T11:16:36.207Z,97580.75
2022-12-11T11:19:02.783Z,97584.13
2022-12-11T11:21:30.300Z,97584.84
2022-12-11T11:23:56.865Z,97583.72
2022-12-11T11:26:23.635Z,97581.03
2022-12-11T11:28:55.629Z,97575.59
2022-12-11T11:31:31.459Z,97572.25
2022-12-11T11:34:00.299Z,97567.53
2022-12-11T11:36:28.635Z,97573.50
2022-12-11T11:39:07.380Z,97569.09
2022-12-11T11:41:58.669Z,97564.88
2022-12-11T11:44:30.019Z,97571.44
2022-12-11T11:47:10.616Z,97561.69
2022-12-11T11:49:55.435Z,97561.13
2022-12-11T11:52:28.532Z,97558.50
2022-12-11T11:55:21.659Z,97555.00
2022-12-11T11:57:55.833Z,97551.59
2022-12-11T12:00:31.918Z,97555.66
2022-12-11T12:03:04.173Z,97555.69
2022-12-11T12:05:50.591Z,97551.09
2022-12-11T12:08:33.293Z,97562.56
2022-12-11T12:11:10.771Z,97564.56
2022-12-11T12:14:12.849Z,97562.66
2022-12-11T12:17:26.378Z,97559.56
2022-12-11T12:19:53.270Z,97554.78
2022-12-11T12:22:35.550Z,97564.81
2022-12-11T12:25:24.932Z,97551.22
2022-12-11T12:28:00.771Z,97552.16
2022-12-11T12:30:32.310Z,97550.31
2022-12-11T12:33:04.965Z,97550.81
2022-12-11T12:35:36.932Z,97550.19
2022-12-11T12:38:22.743Z,97551.09
2022-12-11T12:41:04.605Z,97548.31
2022-12-11T12:43:53.178Z,97554.81
2022-12-11T12:46:27.650Z,97538.41
2022-12-11T12:48:55.514Z,97538.41
2022-12-11T12:51:22.094Z,97534.78
2022-12-11T12:53:59.709Z,97537.00
2022-12-11T12:56:28.023Z,97528.81
2022-12-11T12:58:59.072Z,97528.50
2022-12-11T13:01:27.795Z,97532.94
2022-12-11T13:04:03.034Z,97530.66
2022-12-11T13:06:41.104Z,97527.69
2022-12-11T13:09:17.420Z,97533.25
2022-12-11T13:11:45.769Z,97540.41
2022-12-11T13:14:15.427Z,97534.59
2022-12-11T13:16:43.884Z,97539.34
2022-12-11T13:19:42.397Z,97542.91
2022-12-11T13:22:12.257Z,97540.38
2022-12-11T13:24:48.902Z,97534.91
2022-12-11T13:27:29.642Z,97530.59
2022-12-11T13:30:23.184Z,97533.41
2022-12-11T13:33:14.890Z,97536.38
2022-12-11T13:35:41.611Z,97534.47
2022-12-11T13:38:15.849Z,97543.03
2022-12-11T13:40:44.498Z,97544.72
2022-12-11T13:43:28.882Z,97546.28
2022-12-11T13:46:03.907Z,97550.31
2022-12-11T13:48:34.204Z,97545.69
2022-12-11T13:51:01.592Z,97554.97
2022-12-11T13:53:28.410Z,97552.81
2022-12-11T13:56:00.585Z,97543.53
2022-12-11T13:58:28.230Z,97547.03
2022-12-11T14:01:11.496Z,97551.78
2022-12-11T14:03:52.837Z,97555.03
2022-12-11T14:06:19.259Z,97551.25
2022-12-11T14:08:48.673Z,97555.78
2022-12-11T14:11:27.755Z,97551.38
2022-12-11T14:13:55.747Z,97553.69
2022-12-11T14:16:24.388Z,97548.59
2022-12-11T14:18:51.721Z,97554.09
2022-12-11T14:21:20.344Z,97551.56
2022-12-11T14:23:58.021Z,97557.66
2022-12-11T14:26:27.157Z,97551.31
2022-12-11T14:28:53.949Z,97553.25
2022-12-11T14:31:31.038Z,97551.66
2022-12-11T14:34:02.158Z,97553.69
2022-12-11T14:36:29.409Z,97564.56
2022-12-11T14:38:59.725Z,97561.88
2022-12-11T14:41:36.780Z,97566.88
2022-12-11T14:44:05.334Z,97564.66
2022-12-11T14:46:39.146Z,97571.53
2022-12-11T14:49:12.844Z,97572.03
2022-12-11T14:51:40.775Z,97575.59
2022-12-11T14:54:07.905Z,97581.28
2022-12-11T14:56:34.855Z,97574.75
2022-12-11T14:59:06.719Z,97576.44
2022-12-11T15:01:35.922Z,97572.78
2022-12-11T15:04:14.635Z,97576.31
2022-12-11T15:06:46.903Z,97574.63
2022-12-11T15:09:28.841Z,97579.69
2022-12-11T15:11:57.554Z,97578.56
2022-12-11T15:14:25.562Z,97585.41
2022-12-11T15:16:54.782Z,97589.06
2022-12-11T15:19:31.682Z,97588.63
2022-12-11T15:22:05.845Z,97581.13
2022-12-11T15:24:38.290Z,97588.63
2022-12-11T15:27:04.865Z,97591.75
2022-12-11T15:29:39.670Z,97585.09
2022-12-11T15:32:09.168Z,97579.88
2022-12-11T15:34:43.048Z,97588.56
2022-12-11T15:37:18.610Z,97583.19
2022-12-11T15:39:45.134Z,97587.44
2022-12-11T15:42:14.817Z,97591.00
2022-12-11T15:44:41.975Z,97589.25
2022-12-11T15:47:13.515Z,97592.84
2022-12-11T15:49:40.033Z,97601.28
2022-12-11T15:52:06.516Z,97595.38
2022-12-11T15:54:33.161Z,97600.19
2022-12-11T15:57:01.769Z,97603.03
2022-12-11T15:59:28.268Z,97599.13
2022-12-11T16:01:54.806Z,97602.16
2022-12-11T16:04:21.381Z,97598.16
2022-12-11T16:06:47.862Z,97603.88
2022-12-11T16:09:14.409Z,97597.88
2022-12-11T16:11:40.899Z,97598.94
2022-12-11T16:14:07.380Z,97600.69
2022-12-11T16:16:33.895Z,97599.13
2022-12-11T16:19:00.748Z,97604.41
2022-12-11T16:21:27.275Z,97606.38
2022-12-11T16:23:53.809Z,97613.13
2022-12-11T16:26:20.377Z,97604.09
2022-12-11T16:28:46.886Z,97613.44
2022-12-11T16:31:14.800Z,97604.84
2022-12-11T16:33:41.698Z,97597.72
2022-12-11T16:36:21.932Z,97600.25
2022-12-11T16:38:53.570Z,97606.09
2022-12-11T16:41:22.818Z,97598.47
2022-12-11T16:43:49.717Z,97603.19
2022-12-11T16:46:20.350Z,97601.78
2022-12-11T16:48:47.050Z,97602.94
2022-12-11T16:51:13.879Z,97600.09
2022-12-11T16:53:40.867Z,97604.63
2022-12-11T16:56:08.320Z,97604.19
2022-12-11T16:58:35.275Z,97604.09
2022-12-11T17:01:02.364Z,97604.09
2022-12-11T17:03:30.234Z,97605.28
2022-12-11T17:05:57.712Z,97597.28
2022-12-11T17:08:24.749Z,97602.63
2022-12-11T17:10:52.175Z,97600.84
2022-12-11T17:13:18.819Z,97605.72
2022-12-11T17:15:45.683Z,97601.13
2022-12-11T17:18:12.402Z,97603.44
2022-12-11T17:20:42.818Z,97600.63
2022-12-11T17:23:11.015Z,97602.78
2022-12-11T17:25:44.799Z,97593.19
2022-12-11T17:28:13.622Z,97594.78
2022-12-11T17:30:44.157Z,97597.72
2022-12-11T17:33:11.704Z,97593.69
2022-12-11T17:35:38.656Z,97594.63
2022-12-11T17:38:05.315Z,97601.00
2022-12-11T17:40:32.087Z,97604.25
2022-12-11T17:42:59.278Z,97591.06
2022-12-11T17:45:25.827Z,97599.13
2022-12-11T17:47:52.310Z,97598.59
2022-12-11T17:50:19.416Z,97593.97
2022-12-11T17:52:45.888Z,97592.50
2022-12-11T17:55:12.778Z,97586.34
2022-12-11T17:57:39.546Z,97585.09
2022-12-11T18:00:06.849Z,97579.38
2022-12-11T18:02:38.892Z,97581.63
2022-12-11T18:05:06.175Z,97587.28
2022-12-11T18:07:32.666Z,97585.50
2022-12-11T18:09:59.229Z,97582.97
2022-12-11T18:12:25.799Z,97581.63
2022-12-11T18:14:52.353Z,97589.16
2022-12-11T18:17:18.842Z,97594.94
2022-12-11T18:19:46.324Z,97583.44
2022-12-11T18:22:12.908Z,97589.16
2022-12-11T18:24:39.421Z,97594.91
2022-12-11T18:27:10.168Z,97596.53
2022-12-11T18:29:37.072Z,97595.06
2022-12-11T18:32:03.845Z,97600.75
2022-12-11T18:34:30.398Z,97590.66
2022-12-11T18:36:56.932Z,97598.06
2022-12-11T18:39:23.845Z,97590.94
2022-12-11T18:42:09.737Z,97590.25
2022-12-11T18:44:37.633Z,97594.34
2022-12-11T18:47:04.221Z,97595.75
2022-12-11T18:49:31.008Z,97592.22
2022-12-11T18:51:57.562Z,97593.22
2022-12-11T18:54:24.086Z,97592.22
2022-12-11T18:56:50.563Z,97590.50
2022-12-11T18:59:18.238Z,97588.69
2022-12-11T19:01:44.773Z,97592.66
2022-12-11T19:04:11.299Z,97593.50
2022-12-11T19:06:37.925Z,97596.66
2022-12-11T19:09:06.803Z,97590.97
2022-12-11T19:11:34.228Z,97587.78
2022-12-11T19:14:00.975Z,97591.06
2022-12-11T19:16:30.020Z,97590.63
2022-12-11T19:19:01.700Z,97582.84
2022-12-11T19:21:30.129Z,97583.06
2022-12-11T19:23:56.644Z,97583.78
2022-12-11T19:26:23.947Z,97577.88
2022-12-11T19:28:51.349Z,97580.38
2022-12-11T19:31:21.385Z,97577.19
2022-12-11T19:33:48.123Z,97578.00
2022-12-11T19:36:20.791Z,97585.16
2022-12-11T19:38:47.800Z,97585.94
2022-12-11T19:41:23.501Z,97584.31
2022-12-11T19:43:50.836Z,97578.44
2022-12-11T19:46:18.798Z,97593.13
2022-12-11T19:48:45.407Z,97585.84
2022-12-11T19:51:17.375Z,97593.81
2022-12-11T19:53:45.630Z,97595.56
2022-12-11T19:56:12.805Z,97598.22
2022-12-11T19:58:40.545Z,97587.34
2022-12-11T20:01:07.466Z,97595.66
2022-12-11T20:03:35.039Z,97598.44
2022-12-11T20:06:07.217Z,97601.53
2022-12-11T20:08:49.484Z,97600.41
2022-12-11T20:11:18.620Z,97604.72
2022-12-11T20:13:46.705Z,97598.78
2022-12-11T20:16:13.937Z,97610.44
2022-12-11T20:18:40.603Z,97603.78
2022-12-11T20:21:09.417Z,97602.47
2022-12-11T20:23:36.589Z,97603.56
2022-12-11T20:26:08.400Z,97604.09
2022-12-11T20:28:35.354Z,97605.78
2022-12-11T20:31:07.223Z,97609.13
2022-12-11T20:33:33.844Z,97607.06
2022-12-11T20:36:00.321Z,97607.28
2022-12-11T20:38:31.258Z,97603.53
2022-12-11T20:41:00.744Z,97610.59
2022-12-11T20:43:27.298Z,97612.09
2022-12-11T20:45:53.913Z,97604.25
2022-12-11T20:48:20.458Z,97601.28
2022-12-11T20:50:47.001Z,97607.75
2022-12-11T20:53:13.525Z,97606.31
2022-12-11T20:55:41.349Z,97608.53
2022-12-11T20:58:08.859Z,97612.75
2022-12-11T21:00:39.437Z,97609.34
2022-12-11T21:03:06.385Z,97611.66
2022-12-11T21:05:32.967Z,97610.16
2022-12-11T21:07:59.582Z,97614.00
2022-12-11T21:10:26.141Z,97621.13
2022-12-11T21:12:52.608Z,97606.59
2022-12-11T21:15:19.124Z,97608.69
2022-12-11T21:17:45.719Z,97608.69
2022-12-11T21:20:12.328Z,97616.84
2022-12-11T21:22:38.814Z,97610.16
2022-12-11T21:25:05.773Z,97620.38
2022-12-11T21:27:32.265Z,97614.91
2022-12-11T21:29:58.829Z,97605.84
2022-12-11T21:32:25.527Z,97610.75
2022-12-11T21:34:52.018Z,97606.72
2022-12-11T21:37:18.651Z,97608.84
2022-12-11T21:39:45.228Z,97610.16
2022-12-11T21:42:11.754Z,97610.59
2022-12-11T21:45:37.138Z,97610.53
2022-12-11T21:47:24.908Z,97619.69
2022-12-11T21:49:51.397Z,97613.19
2022-12-11T21:52:17.909Z,97617.84
2022-12-11T21:54:44.388Z,97611.06
2022-12-11T21:57:10.892Z,97620.31
2022-12-11T21:59:37.402Z,97615.03
2022-12-11T22:02:03.936Z,97617.56
2022-12-11T22:04:30.515Z,97624.34
2022-12-11T22:06:57.012Z,97626.00
2022-12-11T22:09:23.825Z,97624.78
2022-12-11T22:11:55.158Z,97626.28
2022-12-11T22:14:24.809Z,97630.72
2022-12-11T22:16:54.430Z,97626.53
2022-12-11T22:19:21.388Z,97632.06
2022-12-11T22:21:48.100Z,97635.25
2022-12-11T22:24:15.181Z,97627.31
2022-12-11T22:26:41.919Z,97632.97
2022-12-11T22:29:08.979Z,97638.00
2022-12-11T22:31:38.430Z,97636.78
2022-12-11T22:34:05.485Z,97627.41
2022-12-11T22:36:32.272Z,97631.59
2022-12-11T22:39:00.304Z,97637.44
2022-12-11T22:41:31.926Z,97637.75
2022-12-11T22:43:59.136Z,97637.44
2022-12-11T22:46:28.756Z,97637.41
2022-12-11T22:48:55.538Z,97636.50
2022-12-11T22:51:22.788Z,97633.53
2022-12-11T22:53:49.410Z,97636.25
2022-12-11T22:56:16.151Z,97639.31
2022-12-11T22:58:42.686Z,97637.00
2022-12-11T23:01:12.059Z,97634.41
2022-12-11T23:03:38.985Z,97640.06
2022-12-11T23:06:08.110Z,97630.94
2022-12-11T23:08:35.562Z,97628.97
2022-12-11T23:11:02.792Z,97635.91
2022-12-11T23:13:29.330Z,97632.19
2022-12-11T23:15:55.935Z,97637.28
2022-12-11T23:18:22.425Z,97638.19
2022-12-11T23:20:49.364Z,97637.63
2022-12-11T23:23:19.025Z,97632.50
2022-12-11T23:25:51.455Z,97636.66
2022-12-11T23:28:18.137Z,97640.97
2022-12-11T23:30:45.138Z,97634.13
2022-12-11T23:33:12.134Z,97644.97
2022-12-11T23:35:38.919Z,97641.66
2022-12-11T23:38:05.478Z,97636.75
2022-12-11T23:40:32.870Z,97636.44
2022-12-11T23:42:59.362Z,97643.00
2022-12-11T23:45:25.885Z,97640.34
2022-12-11T23:47:52.346Z,97649.41
2022-12-11T23:50:19.244Z,97643.81
2022-12-11T23:52:45.720Z,97643.44
2022-12-11T23:55:12.476Z,97637.19
2022-12-11T23:57:39.091Z,97636.56
